This is the latest recevied weather packets stored in our database for station/object 9W2CHF-4. If no packets are shown the sender has not sent any weather packets the latest 10 day(s).
| Time | Temp. | Humidity | Pressure | Rain* | Wind** | Luminosity | Snow |
|---|---|---|---|---|---|---|---|
| 1777607608 | 33.89° C | 80% | 1011.3 hPa | - | - | - | - |
| 1777606708 | 33.89° C | 81% | 1011.8 hPa | - | - | - | - |
| 1777605808 | 33.33° C | 83% | 1012.1 hPa | - | - | - | - |
| 1777604908 | 33.33° C | 84% | 1011.8 hPa | - | - | - | - |
| 1777604007 | 33.33° C | 82% | 1011.8 hPa | - | - | - | - |
| 1777603107 | 33.33° C | 81% | 1011.6 hPa | - | - | - | - |
| 1777602207 | 33.33° C | 82% | 1011.7 hPa | - | - | - | - |
| 1777601307 | 33.33° C | 82% | 1011.7 hPa | - | - | - | - |
| 1777574307 | 33.33° C | 65% | 1010.2 hPa | - | - | - | - |
| 1777572507 | 33.33° C | 68% | 1010.7 hPa | - | - | - | - |
| 1777567106 | 34.44° C | 65% | 1011.5 hPa | - | - | - | - |
| 1777566206 | 34.44° C | 72% | 1011.6 hPa | - | - | - | - |
| 1777564406 | 34.44° C | 74% | 1011.7 hPa | - | - | - | - |
| 1777562606 | 34.44° C | 76% | 1011.6 hPa | - | - | - | - |
| 1777554505 | 34.44° C | 72% | 1010.4 hPa | - | - | - | - |
| 1777550003 | 33.89° C | 65% | 1009.3 hPa | - | - | - | - |
| 1777549102 | 33.89° C | 55% | 1009.2 hPa | - | - | - | - |
| 1777548201 | 33.89° C | 57% | 1009 hPa | - | - | - | - |
| 1777545501 | 33.89° C | 54% | 1008.6 hPa | - | - | - | - |
| 1777544600 | 33.89° C | 55% | 1008.4 hPa | - | - | - | - |
| 1777541899 | 34.44° C | 55% | 1008.2 hPa | - | - | - | - |
| 1777540999 | 33.89° C | 58% | 1008 hPa | - | - | - | - |
| 1777540099 | 34.44° C | 59% | 1007.9 hPa | - | - | - | - |
| 1777538305 | 35° C | 60% | 1008 hPa | - | - | - | - |
| 1777537405 | 34.44° C | 59% | 1007.8 hPa | - | - | - | - |
* Rain since midnight (hover to see other rain measurements)
** Current wind speed in m/s (hover to see current wind gust speed)